createdAt,value
2023-07-28T00:00:29.052Z,6.32
2023-07-28T00:05:33.245Z,5.10
2023-07-28T00:10:34.749Z,7.88
2023-07-28T00:15:36.476Z,6.88
2023-07-28T00:20:38.015Z,10.95
2023-07-28T00:25:39.435Z,8.40
2023-07-28T00:30:41.134Z,9.20
2023-07-28T00:35:42.606Z,9.55
2023-07-28T00:40:43.985Z,9.48
2023-07-28T00:45:45.492Z,12.60
2023-07-28T00:50:49.372Z,15.93
2023-07-28T00:55:50.842Z,14.82
2023-07-28T01:00:52.405Z,14.73
2023-07-28T01:06:13.336Z,14.90
2023-07-28T01:11:15.481Z,17.88
2023-07-28T01:16:17.202Z,19.27
2023-07-28T01:21:22.919Z,15.10
2023-07-28T01:26:37.465Z,14.38
2023-07-28T01:31:40.482Z,12.20
2023-07-28T01:36:41.996Z,8.85
2023-07-28T01:41:43.530Z,8.23
2023-07-28T01:46:44.979Z,6.80
2023-07-28T01:51:47.046Z,8.32
2023-07-28T01:56:48.654Z,7.53
2023-07-28T02:01:50.115Z,10.85
2023-07-28T02:06:53.632Z,8.82
2023-07-28T02:11:55.418Z,15.40
2023-07-28T02:16:57.076Z,9.82
2023-07-28T02:21:58.551Z,10.90
2023-07-28T02:27:00.041Z,10.65
2023-07-28T02:32:01.472Z,15.32
2023-07-28T02:37:02.918Z,13.02
2023-07-28T02:42:04.517Z,16.63
2023-07-28T02:47:06.515Z,12.15
2023-07-28T02:52:08.390Z,16.67
2023-07-28T02:57:09.856Z,14.82
2023-07-28T03:02:11.258Z,13.55
2023-07-28T03:07:12.735Z,14.80
2023-07-28T03:12:14.233Z,13.98
2023-07-28T03:17:15.671Z,14.93
2023-07-28T03:22:17.650Z,15.40
2023-07-28T03:27:19.168Z,14.32
2023-07-28T03:32:20.565Z,32.00
2023-07-28T03:37:22.264Z,16.08
2023-07-28T03:42:23.816Z,15.60
2023-07-28T03:47:25.262Z,18.85
2023-07-28T03:52:26.708Z,19.33
2023-07-28T03:57:28.099Z,17.85
2023-07-28T04:02:29.645Z,18.25
2023-07-28T04:07:31.387Z,18.05
2023-07-28T04:12:32.869Z,25.02
2023-07-28T04:17:34.441Z,17.52
2023-07-28T04:22:35.941Z,18.52
2023-07-28T04:27:37.416Z,16.35
2023-07-28T04:32:39.190Z,18.60
2023-07-28T04:37:40.617Z,18.08
2023-07-28T04:42:42.265Z,16.67
2023-07-28T04:47:43.888Z,17.13
2023-07-28T04:52:45.425Z,18.00
2023-07-28T04:57:47.124Z,18.02
2023-07-28T05:02:48.592Z,17.33
2023-07-28T05:07:50.041Z,20.67
2023-07-28T05:12:51.503Z,23.75
2023-07-28T05:17:52.974Z,19.92
2023-07-28T05:22:54.440Z,20.88
2023-07-28T05:27:56.000Z,22.65
2023-07-28T05:32:57.514Z,22.63
2023-07-28T05:37:58.991Z,23.67
2023-07-28T05:43:00.478Z,22.35
2023-07-28T05:48:01.851Z,20.52
2023-07-28T05:53:03.290Z,21.83
2023-07-28T05:58:04.785Z,27.02
2023-07-28T06:03:06.330Z,19.83
2023-07-28T06:08:07.869Z,23.00
2023-07-28T06:13:09.618Z,23.33
2023-07-28T06:18:11.016Z,27.65
2023-07-28T06:23:12.410Z,21.50
2023-07-28T06:28:14.312Z,20.23
2023-07-28T06:33:15.938Z,24.98
2023-07-28T06:38:17.385Z,27.67
2023-07-28T06:43:18.816Z,27.05
2023-07-28T06:48:20.255Z,21.10
2023-07-28T06:53:21.708Z,22.08
2023-07-28T06:58:23.325Z,25.85
2023-07-28T07:03:24.785Z,25.27
2023-07-28T07:08:26.167Z,26.65
2023-07-28T07:13:27.816Z,23.05
2023-07-28T07:18:29.498Z,25.38
2023-07-28T07:23:30.907Z,21.42
2023-07-28T07:28:32.337Z,22.88
2023-07-28T07:33:33.920Z,23.80
2023-07-28T07:38:35.377Z,26.48
2023-07-28T07:43:36.796Z,19.90
2023-07-28T07:48:38.256Z,20.60
2023-07-28T07:53:39.812Z,27.02
2023-07-28T07:58:41.277Z,26.65
2023-07-28T08:03:42.686Z,37.03
2023-07-28T08:08:44.403Z,20.58
2023-07-28T08:13:47.522Z,18.40
2023-07-28T08:18:48.922Z,21.48
2023-07-28T08:23:50.311Z,21.90
2023-07-28T08:28:51.712Z,19.83
2023-07-28T08:33:53.154Z,21.30
2023-07-28T08:38:54.631Z,19.55
2023-07-28T08:43:56.406Z,17.38
2023-07-28T08:48:57.912Z,18.65
2023-07-28T08:53:59.994Z,18.95
2023-07-28T08:59:01.371Z,16.90
2023-07-28T09:04:02.982Z,20.48
2023-07-28T09:09:07.605Z,11.48
2023-07-28T09:14:12.906Z,12.23
2023-07-28T09:19:15.160Z,13.20
2023-07-28T09:24:16.668Z,11.55
2023-07-28T09:29:20.021Z,10.23
2023-07-28T09:34:28.563Z,12.35
2023-07-28T09:39:30.024Z,7.90
2023-07-28T09:44:31.462Z,8.82
2023-07-28T09:49:42.335Z,9.18
2023-07-28T09:54:45.341Z,7.68
2023-07-28T10:04:49.516Z,8.27
2023-07-28T10:09:51.087Z,10.45
2023-07-28T10:15:02.576Z,9.30
2023-07-28T10:20:05.248Z,6.93
2023-07-28T10:25:07.338Z,5.57
2023-07-28T10:30:13.470Z,7.07
2023-07-28T10:35:14.859Z,5.45
2023-07-28T10:40:31.225Z,5.63
2023-07-28T10:45:33.691Z,5.00
2023-07-28T10:50:35.102Z,4.28
2023-07-28T10:55:36.523Z,5.70
2023-07-28T11:00:37.967Z,7.60
2023-07-28T11:05:39.597Z,4.00
2023-07-28T11:10:41.967Z,9.15
2023-07-28T11:15:44.753Z,7.50
2023-07-28T11:20:46.178Z,4.75
2023-07-28T11:25:47.620Z,4.97
2023-07-28T11:30:49.117Z,4.80
2023-07-28T11:35:50.554Z,2.10
2023-07-28T11:40:53.019Z,2.08
2023-07-28T11:45:54.462Z,2.92
2023-07-28T11:50:55.882Z,2.92
2023-07-28T11:55:57.350Z,6.43
2023-07-28T12:21:44.837Z,3.05
2023-07-28T12:26:47.448Z,2.65
2023-07-28T12:31:49.045Z,3.70
2023-07-28T12:36:54.057Z,1.63
2023-07-28T12:47:01.363Z,3.33
2023-07-28T12:52:06.096Z,3.63
2023-07-28T13:02:11.962Z,2.05
2023-07-28T13:17:22.123Z,1.63
2023-07-28T13:22:23.993Z,2.55
2023-07-28T13:27:25.383Z,1.38
2023-07-28T13:32:26.824Z,3.50
2023-07-28T13:42:29.546Z,4.00
2023-07-28T13:47:31.140Z,3.33
2023-07-28T13:52:32.678Z,3.63
2023-07-28T13:57:34.170Z,2.58
2023-07-28T14:02:39.359Z,4.28
2023-07-28T14:07:40.947Z,3.38
2023-07-28T14:12:42.423Z,3.97
2023-07-28T14:17:43.958Z,2.22
2023-07-28T14:22:45.408Z,2.47
2023-07-28T14:27:46.816Z,6.93
2023-07-28T14:32:48.266Z,8.15
2023-07-28T14:37:49.813Z,7.78
2023-07-28T14:42:51.195Z,3.65
2023-07-28T14:47:52.778Z,5.53
2023-07-28T14:52:54.205Z,10.00
2023-07-28T14:57:55.651Z,7.45
2023-07-28T15:02:57.500Z,7.20
2023-07-28T15:07:59.167Z,6.70
2023-07-28T15:13:00.651Z,6.85
2023-07-28T15:18:02.536Z,7.00
2023-07-28T15:23:04.002Z,6.30
2023-07-28T15:28:05.477Z,5.32
2023-07-28T15:33:07.014Z,4.97
2023-07-28T15:38:08.549Z,5.38
2023-07-28T15:43:09.955Z,4.70
2023-07-28T15:48:11.451Z,6.38
2023-07-28T15:53:12.864Z,6.53
2023-07-28T15:58:14.422Z,6.15
2023-07-28T16:03:15.846Z,5.50
2023-07-28T16:08:17.359Z,7.43
2023-07-28T16:13:18.759Z,5.97
2023-07-28T16:18:20.462Z,5.03
2023-07-28T16:23:21.911Z,5.55
2023-07-28T16:28:23.328Z,5.60
2023-07-28T16:33:24.842Z,9.30
2023-07-28T16:38:26.271Z,11.45
2023-07-28T16:43:27.670Z,5.93
2023-07-28T16:48:29.187Z,5.32
2023-07-28T16:53:30.595Z,8.73
2023-07-28T16:58:31.992Z,5.07
2023-07-28T17:03:33.410Z,4.38
2023-07-28T17:08:34.826Z,4.75
2023-07-28T17:13:36.254Z,4.88
2023-07-28T17:18:37.890Z,3.58
2023-07-28T17:23:39.259Z,2.90
2023-07-28T17:28:40.647Z,6.25
2023-07-28T17:33:42.038Z,3.38
2023-07-28T17:38:43.441Z,3.22
2023-07-28T17:43:44.837Z,6.72
2023-07-28T17:48:46.233Z,4.00
2023-07-28T17:53:47.647Z,5.30
2023-07-28T17:58:49.034Z,4.63
2023-07-28T18:03:50.508Z,6.22
2023-07-28T18:08:51.963Z,3.95
2023-07-28T18:13:53.373Z,5.88
2023-07-28T18:18:54.835Z,7.30
2023-07-28T18:23:56.233Z,4.38
2023-07-28T18:28:57.615Z,5.47
2023-07-28T18:33:59.033Z,7.45
2023-07-28T18:39:00.433Z,10.52
2023-07-28T18:44:01.894Z,5.88
2023-07-28T18:49:03.325Z,6.35
2023-07-28T18:54:10.331Z,5.82
2023-07-28T18:59:11.724Z,5.65
2023-07-28T19:04:13.431Z,4.25
2023-07-28T19:09:15.056Z,7.55
2023-07-28T19:14:16.546Z,6.18
2023-07-28T19:19:18.013Z,5.93
2023-07-28T19:24:19.473Z,8.20
2023-07-28T19:29:21.074Z,11.40
2023-07-28T19:34:22.710Z,7.68
2023-07-28T19:39:24.901Z,5.88
2023-07-28T19:44:40.085Z,8.15
2023-07-28T19:49:43.431Z,7.72
2023-07-28T19:54:44.957Z,8.88
2023-07-28T19:59:46.426Z,6.18
2023-07-28T20:04:47.871Z,7.45
2023-07-28T20:09:49.466Z,7.25
2023-07-28T20:14:51.221Z,5.85
2023-07-28T20:19:52.955Z,6.90
2023-07-28T20:24:54.353Z,6.22
2023-07-28T20:29:55.766Z,7.53
2023-07-28T20:34:57.167Z,6.32
2023-07-28T20:39:58.599Z,11.38
2023-07-28T20:45:00.023Z,7.07
2023-07-28T20:50:01.784Z,8.07
2023-07-28T20:55:03.720Z,7.57
2023-07-28T21:00:05.731Z,9.77
2023-07-28T21:05:07.272Z,8.50
2023-07-28T21:10:08.996Z,9.45
2023-07-28T21:15:10.535Z,9.48
2023-07-28T21:20:12.700Z,9.50
2023-07-28T21:25:14.126Z,10.65
2023-07-28T21:30:15.530Z,12.50
2023-07-28T21:35:17.027Z,9.65
2023-07-28T21:40:18.512Z,10.82
2023-07-28T21:45:20.422Z,12.18
2023-07-28T21:50:21.901Z,13.05
2023-07-28T21:55:23.440Z,14.05
2023-07-28T22:00:24.845Z,11.68
2023-07-28T22:05:26.254Z,12.32
2023-07-28T22:10:27.791Z,11.50
2023-07-28T22:15:29.431Z,12.80
2023-07-28T22:20:33.604Z,12.80
2023-07-28T22:25:43.389Z,14.23
2023-07-28T22:30:46.191Z,16.08
2023-07-28T22:35:49.141Z,12.80
2023-07-28T22:40:50.863Z,13.07
2023-07-28T22:45:52.385Z,14.73
2023-07-28T22:50:53.977Z,13.23
2023-07-28T22:55:55.419Z,11.55
2023-07-28T23:00:56.843Z,13.75
2023-07-28T23:05:58.384Z,17.35
2023-07-28T23:11:00.190Z,12.32
2023-07-28T23:16:01.921Z,13.55
2023-07-28T23:21:03.498Z,20.00
2023-07-28T23:26:05.107Z,12.48
2023-07-28T23:31:17.742Z,18.63
2023-07-28T23:36:19.669Z,13.38
2023-07-28T23:41:21.200Z,14.52
2023-07-28T23:46:22.784Z,13.73
2023-07-28T23:51:24.400Z,16.00
2023-07-28T23:56:25.810Z,15.68
